Time;durP1;ratioP1;P1;durP2;ratioP2;P2;SDS_P1;SDS_P2;PMS_P1;PMS_P2;Temp;Humidity;BMP_temperature;BMP_pressure;BME280_temperature;BME280_humidity;BME280_pressure;Samples;Min_cycle;Max_cycle;Signal;HPM_P1;HPM_P2
2021/04/03 00:01:26;;;;;;;9.20;2.03;;;4.20;99.90;;;;;;4977809;28;20177;-81
2021/04/03 00:03:52;;;;;;;9.23;1.80;;;4.20;99.90;;;;;;4978118;28;20229;-81
2021/04/03 00:06:17;;;;;;;10.00;1.90;;;4.20;99.90;;;;;;4960228;28;20233;-81
2021/04/03 00:08:43;;;;;;;8.13;1.83;;;4.20;99.90;;;;;;4959642;28;20183;-81
2021/04/03 00:11:09;;;;;;;7.83;1.97;;;4.10;99.90;;;;;;4977280;28;20255;-81
2021/04/03 00:13:41;;;;;;;7.40;2.57;;;4.10;99.90;;;;;;4977519;28;20181;-80
2021/04/03 00:16:10;;;;;;;8.27;2.33;;;4.00;99.90;;;;;;4959480;28;20194;-83
2021/04/03 00:18:35;;;;;;;9.10;1.90;;;4.00;99.90;;;;;;4958975;28;20210;-82
2021/04/03 00:21:01;;;;;;;6.00;1.80;;;4.00;99.90;;;;;;4977185;28;20171;-82
2021/04/03 00:23:27;;;;;;;7.87;2.30;;;4.00;99.90;;;;;;4959481;28;20192;-83
2021/04/03 00:25:52;;;;;;;9.87;2.60;;;3.90;99.90;;;;;;4976641;28;20198;-81
2021/04/03 00:28:18;;;;;;;11.73;1.90;;;3.90;99.90;;;;;;4959556;28;20188;-81
2021/04/03 00:30:44;;;;;;;6.23;1.70;;;3.80;99.90;;;;;;4976884;28;20201;-82
2021/04/03 00:33:09;;;;;;;9.13;2.20;;;3.80;99.90;;;;;;4959011;28;20244;-81
2021/04/03 00:35:37;;;;;;;9.33;2.23;;;3.80;99.90;;;;;;4975829;28;20595;-81
2021/04/03 00:38:04;;;;;;;7.83;2.67;;;3.80;99.90;;;;;;4975392;28;20186;-81
2021/04/03 00:40:37;;;;;;;7.40;1.70;;;3.90;99.90;;;;;;4958115;28;20178;-82
2021/04/03 00:43:07;;;;;;;6.83;1.60;;;3.90;99.90;;;;;;4975535;28;20263;-81
2021/04/03 00:45:33;;;;;;;8.23;2.23;;;3.80;99.90;;;;;;4957862;28;20182;-81
2021/04/03 00:47:58;;;;;;;6.60;1.77;;;3.70;99.90;;;;;;4957813;28;20188;-80
2021/04/03 00:50:33;;;;;;;7.70;1.93;;;3.80;99.90;;;;;;4957826;28;20590;-80
2021/04/03 00:52:59;;;;;;;7.07;2.00;;;3.70;99.90;;;;;;4974940;28;20351;-80
2021/04/03 00:55:25;;;;;;;7.47;1.80;;;3.70;99.90;;;;;;4975090;28;20705;-80
2021/04/03 00:57:50;;;;;;;8.43;2.27;;;3.70;99.90;;;;;;4974745;28;20306;-80
2021/04/03 01:00:17;;;;;;;11.27;2.27;;;3.70;99.90;;;;;;4974928;28;20180;-80
2021/04/03 01:02:43;;;;;;;6.97;1.93;;;3.60;99.90;;;;;;4974871;28;20257;-80
2021/04/03 01:05:13;;;;;;;7.57;2.27;;;3.60;99.90;;;;;;4973834;28;20202;-80
2021/04/03 01:07:40;;;;;;;9.93;2.20;;;3.60;99.90;;;;;;4957024;28;20206;-80
2021/04/03 01:10:06;;;;;;;7.07;2.00;;;3.60;99.90;;;;;;4957261;28;20178;-81
2021/04/03 01:12:54;;;;;;;5.00;1.73;;;3.60;99.90;;;;;;4957267;28;20215;-80
2021/04/03 01:15:50;;;;;;;5.50;1.50;;;3.60;99.90;;;;;;4957494;28;20596;-80
2021/04/03 01:18:45;;;;;;;4.80;1.93;;;3.60;99.90;;;;;;4974463;28;20169;-82
2021/04/03 01:21:33;;;;;;;7.03;1.67;;;3.70;99.90;;;;;;4957397;28;20695;-80
2021/04/03 01:24:22;;;;;;;6.37;1.90;;;3.60;99.90;;;;;;4957207;28;20188;-81
2021/04/03 01:27:20;;;;;;;9.13;2.07;;;3.60;99.90;;;;;;4957041;28;20238;-80
2021/04/03 01:30:09;;;;;;;5.83;1.83;;;3.60;99.90;;;;;;4974242;28;20181;-80
2021/04/03 01:32:54;;;;;;;8.87;1.80;;;3.50;99.90;;;;;;4974230;28;20681;-80
2021/04/03 01:35:38;;;;;;;7.47;1.93;;;3.60;99.90;;;;;;4974286;28;20170;-80
2021/04/03 01:38:36;;;;;;;6.27;2.10;;;3.60;99.90;;;;;;4956716;28;20178;-80
2021/04/03 01:41:03;;;;;;;6.83;1.97;;;3.60;99.90;;;;;;4956470;28;20328;-80
2021/04/03 01:43:41;;;;;;;6.30;1.70;;;3.60;99.90;;;;;;4974123;28;20183;-80
2021/04/03 01:46:07;;;;;;;6.47;2.03;;;3.50;99.90;;;;;;4974250;28;20273;-80
2021/04/03 01:48:35;;;;;;;5.47;2.03;;;3.60;99.90;;;;;;4973716;28;20170;-80
2021/04/03 01:51:01;;;;;;;7.60;2.13;;;3.50;99.90;;;;;;4956579;28;20181;-80
2021/04/03 01:53:28;;;;;;;7.67;2.10;;;3.50;99.90;;;;;;4973867;28;20539;-80
2021/04/03 01:55:55;;;;;;;7.43;2.10;;;3.50;99.90;;;;;;4973717;28;20313;-80
2021/04/03 01:58:22;;;;;;;6.73;1.93;;;3.40;99.90;;;;;;4956405;28;20229;-81
2021/04/03 02:00:48;;;;;;;6.97;2.17;;;3.40;99.90;;;;;;4956322;28;20175;-80
2021/04/03 02:03:13;;;;;;;7.47;1.90;;;3.40;99.90;;;;;;4956478;28;20178;-80
2021/04/03 02:05:40;;;;;;;6.03;1.57;;;3.40;99.90;;;;;;4973648;28;20196;-80
2021/04/03 02:08:07;;;;;;;6.60;1.90;;;3.40;99.90;;;;;;4973412;28;20549;-80
2021/04/03 02:10:35;;;;;;;5.97;1.77;;;3.50;99.90;;;;;;4956064;28;20276;-79
2021/04/03 02:13:05;;;;;;;5.80;1.57;;;3.50;99.90;;;;;;4973520;28;20202;-80
2021/04/03 02:15:31;;;;;;;5.83;1.67;;;3.50;99.90;;;;;;4956082;28;20174;-81
2021/04/03 02:17:57;;;;;;;8.13;1.97;;;3.50;99.90;;;;;;4955961;28;20205;-81
2021/04/03 02:20:24;;;;;;;4.90;1.50;;;3.50;99.90;;;;;;4973229;28;20607;-80
2021/04/03 02:22:50;;;;;;;7.63;1.97;;;3.50;99.90;;;;;;4973284;28;20209;-80
2021/04/03 02:25:17;;;;;;;7.03;1.87;;;3.50;99.90;;;;;;4973392;28;20332;-80
2021/04/03 02:27:43;;;;;;;4.77;1.57;;;3.40;99.90;;;;;;4955995;28;20689;-80
2021/04/03 02:30:12;;;;;;;4.33;1.53;;;3.30;99.90;;;;;;4973078;28;20177;-80
2021/04/03 02:32:43;;;;;;;8.63;1.90;;;3.30;99.90;;;;;;4956034;28;20556;-79
2021/04/03 02:35:09;;;;;;;4.17;1.37;;;3.40;99.90;;;;;;4955945;28;20208;-79
2021/04/03 02:37:35;;;;;;;4.27;1.40;;;3.40;99.90;;;;;;4973178;28;20684;-80
2021/04/03 02:40:02;;;;;;;4.83;1.70;;;3.40;99.90;;;;;;4973199;28;20167;-80
2021/04/03 02:42:28;;;;;;;6.63;1.80;;;3.40;99.90;;;;;;4955846;28;20672;-80
2021/04/03 02:45:02;;;;;;;2.83;1.20;;;3.30;99.90;;;;;;4973191;28;20382;-80
2021/04/03 02:47:41;;;;;;;4.50;1.20;;;3.30;99.90;;;;;;4973071;28;20198;-80
2021/04/03 02:50:13;;;;;;;4.13;1.33;;;3.30;99.90;;;;;;4972865;28;20864;-81
2021/04/03 02:52:40;;;;;;;7.40;1.47;;;3.40;99.90;;;;;;4955772;28;20213;-81
2021/04/03 02:55:07;;;;;;;4.23;1.57;;;3.30;99.90;;;;;;4955997;28;20213;-80
2021/04/03 02:57:34;;;;;;;5.50;1.43;;;3.40;99.90;;;;;;4955564;28;20214;-80
2021/04/03 03:00:03;;;;;;;4.03;1.50;;;3.40;99.90;;;;;;4972974;28;20178;-80
2021/04/03 03:02:30;;;;;;;3.67;1.43;;;3.40;99.90;;;;;;4955534;28;20613;-80
2021/04/03 03:04:55;;;;;;;6.20;1.70;;;3.30;99.90;;;;;;4955731;28;20640;-81
2021/04/03 03:07:24;;;;;;;6.23;1.80;;;3.30;99.90;;;;;;4955752;28;20198;-81
2021/04/03 03:09:51;;;;;;;6.40;1.70;;;3.30;99.90;;;;;;4972795;28;20178;-80
2021/04/03 03:12:21;;;;;;;4.77;1.50;;;3.30;99.90;;;;;;4972880;28;20202;-80
2021/04/03 03:14:48;;;;;;;4.80;1.50;;;3.30;99.90;;;;;;4955663;28;20181;-80
2021/04/03 03:17:14;;;;;;;5.77;1.50;;;3.30;99.90;;;;;;4973014;28;20646;-80
2021/04/03 03:19:40;;;;;;;5.97;1.57;;;3.40;99.90;;;;;;4955288;28;20190;-80
2021/04/03 03:22:07;;;;;;;6.60;1.80;;;3.30;99.90;;;;;;4972766;28;20178;-80
2021/04/03 03:24:34;;;;;;;6.73;1.57;;;3.30;99.90;;;;;;4955511;28;20261;-80
2021/04/03 03:27:01;;;;;;;5.43;1.37;;;3.30;99.90;;;;;;4955411;28;20221;-80
2021/04/03 03:29:27;;;;;;;4.60;1.50;;;3.20;99.90;;;;;;4975654;28;20262;-80
2021/04/03 03:31:54;;;;;;;6.00;1.60;;;3.20;99.90;;;;;;4959282;28;20214;-80
2021/04/03 03:34:21;;;;;;;4.27;1.40;;;3.20;99.90;;;;;;4976537;28;20170;-80
2021/04/03 03:36:47;;;;;;;4.23;1.27;;;3.30;99.90;;;;;;4959069;28;20202;-80
2021/04/03 03:39:13;;;;;;;3.70;1.23;;;3.30;99.90;;;;;;4958911;28;20180;-80
2021/04/03 03:41:39;;;;;;;5.77;1.40;;;3.20;99.90;;;;;;4976364;28;20175;-80
2021/04/03 03:44:06;;;;;;;5.07;1.40;;;3.20;99.90;;;;;;4976245;28;20179;-80
2021/04/03 03:46:32;;;;;;;3.57;1.17;;;3.20;99.90;;;;;;4976257;28;20190;-80
2021/04/03 03:48:57;;;;;;;4.97;1.40;;;3.20;99.90;;;;;;4958813;28;20265;-80
2021/04/03 03:51:23;;;;;;;4.70;1.67;;;3.20;99.90;;;;;;4976256;28;20259;-80
2021/04/03 03:53:49;;;;;;;5.20;1.30;;;3.00;99.90;;;;;;4958990;28;20167;-80
2021/04/03 03:56:15;;;;;;;3.03;1.10;;;3.00;99.90;;;;;;4976181;28;20248;-80
2021/04/03 03:58:41;;;;;;;6.20;1.57;;;3.00;99.90;;;;;;4975740;28;20190;-80
2021/04/03 04:01:07;;;;;;;8.53;1.57;;;3.10;99.90;;;;;;4976211;28;20561;-80
2021/04/03 04:03:32;;;;;;;3.37;1.30;;;3.00;99.90;;;;;;4958813;28;20185;-80
2021/04/03 04:05:58;;;;;;;5.33;1.40;;;3.00;99.90;;;;;;4958717;28;20237;-80
2021/04/03 04:08:23;;;;;;;7.30;1.50;;;3.00;99.90;;;;;;4958579;28;20580;-81
2021/04/03 04:10:49;;;;;;;4.47;1.50;;;2.90;99.90;;;;;;4975834;28;20241;-80
2021/04/03 04:13:15;;;;;;;4.73;1.30;;;2.90;99.90;;;;;;4958579;28;20194;-80
2021/04/03 04:15:40;;;;;;;3.33;1.20;;;2.90;99.90;;;;;;4975995;28;20190;-80
2021/04/03 04:18:06;;;;;;;4.70;1.43;;;2.80;99.90;;;;;;4976067;28;20170;-80
2021/04/03 04:20:32;;;;;;;5.47;1.37;;;2.80;99.90;;;;;;4975516;28;20708;-80
2021/04/03 04:22:58;;;;;;;4.23;1.47;;;2.80;99.90;;;;;;4958440;28;20196;-80
2021/04/03 04:25:24;;;;;;;5.13;1.60;;;2.80;99.90;;;;;;4958403;28;20270;-80
2021/04/03 04:27:50;;;;;;;5.80;1.50;;;2.80;99.90;;;;;;4975620;28;20281;-80
2021/04/03 04:30:15;;;;;;;3.83;1.30;;;2.80;99.90;;;;;;4957969;28;20178;-80
2021/04/03 04:32:42;;;;;;;5.80;1.63;;;2.90;99.90;;;;;;4975506;28;20206;-80
2021/04/03 04:35:09;;;;;;;4.93;1.50;;;2.80;99.90;;;;;;4975969;28;20175;-80
2021/04/03 04:37:37;;;;;;;6.00;1.40;;;2.80;99.90;;;;;;4958340;28;20198;-80
2021/04/03 04:40:04;;;;;;;4.30;1.33;;;2.80;99.90;;;;;;4957677;28;20178;-80
2021/04/03 04:42:30;;;;;;;7.90;1.90;;;2.80;99.90;;;;;;4958052;28;20229;-80
2021/04/03 04:44:56;;;;;;;5.37;1.60;;;2.80;99.90;;;;;;4958153;28;20205;-80
2021/04/03 04:47:21;;;;;;;5.27;1.50;;;2.80;99.90;;;;;;4957926;28;20664;-80
2021/04/03 04:49:47;;;;;;;6.77;1.53;;;2.80;99.90;;;;;;4957869;28;20194;-80
2021/04/03 04:52:13;;;;;;;5.23;1.50;;;2.80;99.90;;;;;;4975277;28;20202;-81
2021/04/03 04:54:38;;;;;;;4.97;1.40;;;2.80;99.90;;;;;;4958073;28;20170;-81
2021/04/03 04:57:04;;;;;;;8.30;1.80;;;2.70;99.90;;;;;;4957487;28;20219;-80
2021/04/03 04:59:30;;;;;;;7.10;2.00;;;2.70;99.90;;;;;;4957577;28;20573;-80
2021/04/03 05:01:56;;;;;;;6.97;1.60;;;2.60;99.90;;;;;;4957634;28;20186;-80
2021/04/03 05:04:21;;;;;;;6.23;2.47;;;2.70;99.90;;;;;;4943225;28;20183;-80
2021/04/03 05:06:46;;;;;;;6.37;2.43;;;2.70;99.90;;;;;;4953031;28;20206;-80
2021/04/03 05:09:12;;;;;;;5.73;2.23;;;2.70;99.90;;;;;;4940498;29;20539;-79
2021/04/03 05:11:38;;;;;;;7.07;2.60;;;2.70;99.90;;;;;;4940277;28;20202;-79
2021/04/03 05:14:04;;;;;;;6.67;1.93;;;2.70;99.90;;;;;;4974800;28;20178;-79
2021/04/03 05:16:29;;;;;;;9.30;2.87;;;2.70;99.90;;;;;;4957470;28;20672;-80
2021/04/03 05:18:55;;;;;;;7.10;1.93;;;2.70;99.90;;;;;;4974602;28;20237;-79
2021/04/03 05:21:20;;;;;;;6.07;2.07;;;2.80;99.90;;;;;;4945876;29;20215;-80
2021/04/03 05:23:46;;;;;;;6.00;2.40;;;2.90;99.90;;;;;;4938119;29;20186;-80
2021/04/03 05:26:11;;;;;;;8.90;3.73;;;3.00;99.90;;;;;;4955239;29;20195;-80
2021/04/03 05:28:37;;;;;;;7.33;3.07;;;3.00;99.90;;;;;;4955014;29;20210;-80
2021/04/03 05:31:02;;;;;;;6.87;2.83;;;2.90;99.90;;;;;;4937958;29;20209;-80
2021/04/03 05:33:28;;;;;;;5.07;2.20;;;3.00;99.90;;;;;;4955075;29;20293;-80
2021/04/03 05:35:54;;;;;;;4.97;1.73;;;3.00;99.90;;;;;;4937937;29;20202;-80
2021/04/03 05:38:19;;;;;;;6.67;1.90;;;3.10;99.90;;;;;;4948508;28;20182;-80
2021/04/03 05:40:45;;;;;;;6.57;1.53;;;3.20;99.90;;;;;;4953482;28;20206;-81
2021/04/03 05:43:11;;;;;;;5.57;1.80;;;3.20;99.90;;;;;;4946991;29;20191;-80
2021/04/03 05:45:38;;;;;;;7.90;2.00;;;3.30;99.90;;;;;;4955755;28;20260;-80
2021/04/03 05:48:05;;;;;;;6.93;1.83;;;3.30;99.90;;;;;;4956277;28;20189;-80
2021/04/03 05:50:31;;;;;;;5.60;1.53;;;3.30;99.90;;;;;;4956555;28;20573;-80
2021/04/03 05:52:58;;;;;;;6.33;1.80;;;3.30;99.90;;;;;;4944738;28;20261;-80
2021/04/03 05:55:26;;;;;;;5.67;1.87;;;3.40;99.90;;;;;;4956826;28;20171;-79
2021/04/03 05:57:51;;;;;;;6.43;1.87;;;3.50;99.90;;;;;;4973656;23;20261;-79
2021/04/03 06:00:17;;;;;;;5.87;1.50;;;3.50;99.90;;;;;;4966531;28;20175;-79
2021/04/03 06:02:43;;;;;;;5.53;1.77;;;3.60;99.90;;;;;;4955232;29;20179;-79
2021/04/03 06:05:09;;;;;;;7.60;1.80;;;3.70;99.90;;;;;;4949358;28;21038;-79
2021/04/03 06:07:35;;;;;;;4.87;1.53;;;3.70;99.90;;;;;;4957281;28;20256;-79
2021/04/03 06:10:03;;;;;;;5.40;1.47;;;3.80;99.90;;;;;;4953966;28;20261;-79
2021/04/03 06:12:38;;;;;;;5.83;2.13;;;3.90;99.90;;;;;;4957495;28;20576;-78
2021/04/03 06:15:04;;;;;;;5.47;1.70;;;3.90;99.90;;;;;;4943549;29;20203;-79
2021/04/03 06:17:30;;;;;;;6.07;1.80;;;4.00;99.90;;;;;;4937929;29;20202;-80
2021/04/03 06:19:55;;;;;;;5.10;2.00;;;4.10;99.90;;;;;;4947468;28;20174;-80
2021/04/03 06:22:21;;;;;;;4.93;1.90;;;4.10;99.90;;;;;;4971460;28;20188;-78
2021/04/03 06:24:47;;;;;;;6.00;1.67;;;4.20;99.90;;;;;;4939007;29;20673;-79
2021/04/03 06:27:17;;;;;;;3.57;1.37;;;4.30;99.90;;;;;;4944290;28;20179;-78
2021/04/03 06:29:48;;;;;;;7.00;1.70;;;4.40;99.90;;;;;;4956574;28;20183;-79
2021/04/03 06:32:18;;;;;;;5.37;1.57;;;4.50;99.90;;;;;;4956808;28;20777;-82
2021/04/03 06:34:49;;;;;;;7.00;1.80;;;4.60;99.90;;;;;;4957843;28;20178;-80
2021/04/03 06:37:23;;;;;;;4.87;1.53;;;4.70;99.90;;;;;;4956751;28;20178;-80
2021/04/03 06:40:03;;;;;;;4.60;1.30;;;4.80;99.90;;;;;;4956781;28;20249;-79
2021/04/03 06:42:43;;;;;;;6.40;1.83;;;4.90;99.90;;;;;;4956948;28;20164;-80
2021/04/03 06:45:31;;;;;;;6.30;2.07;;;5.00;99.90;;;;;;4956611;28;20811;-80
2021/04/03 06:48:05;;;;;;;4.70;1.40;;;5.20;99.90;;;;;;4956732;28;20202;-81
2021/04/03 06:50:43;;;;;;;5.53;1.13;;;5.20;99.90;;;;;;4956561;28;20657;-80
2021/04/03 06:53:14;;;;;;;7.50;1.87;;;5.30;99.90;;;;;;4950428;29;20201;-78
2021/04/03 06:55:41;;;;;;;7.00;1.40;;;5.50;99.90;;;;;;4937810;29;20185;-80
2021/04/03 06:58:08;;;;;;;4.17;1.50;;;5.50;99.90;;;;;;4950726;28;20210;-80
2021/04/03 07:00:35;;;;;;;4.43;1.43;;;5.60;99.90;;;;;;4973787;28;20175;-80
2021/04/03 07:03:03;;;;;;;4.97;1.57;;;5.70;99.90;;;;;;4957866;28;20296;-81
2021/04/03 07:05:36;;;;;;;6.73;1.67;;;5.80;99.90;;;;;;4960856;28;20182;-82
2021/04/03 07:08:04;;;;;;;4.73;1.73;;;5.80;99.90;;;;;;4960668;28;20213;-81
2021/04/03 07:10:30;;;;;;;7.13;1.70;;;5.90;99.90;;;;;;4944122;28;20187;-81
2021/04/03 07:12:56;;;;;;;4.23;1.33;;;6.10;99.90;;;;;;4941410;29;20206;-81
2021/04/03 07:15:23;;;;;;;5.87;1.70;;;6.10;99.90;;;;;;4941205;29;20187;-81
2021/04/03 07:17:50;;;;;;;4.30;1.47;;;6.20;99.90;;;;;;4954740;28;20299;-81
2021/04/03 07:20:22;;;;;;;4.87;1.23;;;6.30;99.90;;;;;;4958396;28;20178;-81
2021/04/03 07:22:51;;;;;;;3.90;1.13;;;6.30;99.90;;;;;;4958389;28;20202;-80
2021/04/03 07:25:19;;;;;;;5.27;2.07;;;6.50;99.90;;;;;;4941303;29;20648;-80
2021/04/03 07:27:46;;;;;;;5.20;1.20;;;6.40;99.90;;;;;;4941199;29;20216;-81
2021/04/03 07:30:13;;;;;;;4.73;2.03;;;6.50;99.90;;;;;;4940937;29;20197;-81
2021/04/03 07:32:44;;;;;;;3.67;1.50;;;6.60;99.90;;;;;;4954117;28;20202;-82
2021/04/03 07:35:43;;;;;;;3.97;0.90;;;6.70;99.90;;;;;;4960209;28;20745;-81
2021/04/03 07:38:11;;;;;;;5.07;1.20;;;6.90;99.90;;;;;;4929604;28;20236;-81
2021/04/03 07:40:49;;;;;;;3.17;0.80;;;7.00;99.90;;;;;;4976529;28;20174;-81
2021/04/03 07:43:30;;;;;;;3.00;0.43;;;7.00;99.90;;;;;;4959993;28;20182;-81
2021/04/03 07:45:57;;;;;;;2.57;0.50;;;7.10;99.90;;;;;;4959854;28;20201;-80
2021/04/03 07:48:38;;;;;;;2.60;0.53;;;7.10;99.90;;;;;;4948550;28;20663;-82
2021/04/03 07:51:14;;;;;;;2.70;0.63;;;7.20;99.90;;;;;;4940749;29;20190;-81
2021/04/03 07:53:42;;;;;;;1.77;0.60;;;7.30;99.90;;;;;;4940925;28;20247;-80
2021/04/03 07:56:09;;;;;;;2.03;0.50;;;7.30;99.90;;;;;;4953801;28;20182;-81
2021/04/03 07:58:36;;;;;;;2.20;0.60;;;7.40;99.90;;;;;;4952671;29;20217;-82
2021/04/03 08:01:04;;;;;;;4.17;0.70;;;7.50;99.90;;;;;;4940529;29;20179;-81
2021/04/03 08:03:31;;;;;;;2.03;0.53;;;7.70;99.90;;;;;;4945134;28;20186;-81
2021/04/03 08:06:05;;;;;;;2.57;0.53;;;7.80;99.90;;;;;;4959656;28;20190;-81
2021/04/03 08:08:33;;;;;;;1.60;0.53;;;7.80;99.90;;;;;;4976509;28;20198;-81
2021/04/03 08:11:28;;;;;;;1.70;0.60;;;8.00;99.90;;;;;;4959959;28;20192;-82
2021/04/03 08:13:55;;;;;;;3.00;0.70;;;8.00;99.90;;;;;;4943644;28;20206;-81
2021/04/03 08:16:22;;;;;;;2.93;0.60;;;8.10;99.90;;;;;;4960001;28;20190;-81
2021/04/03 08:18:53;;;;;;;1.80;0.40;;;8.20;99.90;;;;;;4960691;28;20740;-82
2021/04/03 08:21:23;;;;;;;2.47;0.50;;;8.30;99.90;;;;;;4959677;28;20253;-81
2021/04/03 08:24:07;;;;;;;3.53;0.50;;;8.30;99.90;;;;;;4959648;28;20277;-81
2021/04/03 08:26:40;;;;;;;1.40;0.30;;;8.20;99.90;;;;;;4959595;28;20205;-81
2021/04/03 08:29:07;;;;;;;2.00;0.30;;;8.30;98.50;;;;;;4959349;28;20325;-80
2021/04/03 08:31:34;;;;;;;2.60;0.50;;;8.40;97.40;;;;;;4959088;28;20170;-81
2021/04/03 08:34:04;;;;;;;4.20;0.83;;;8.50;95.90;;;;;;4953325;28;20182;-81
2021/04/03 08:36:35;;;;;;;1.50;0.43;;;8.60;99.90;;;;;;4957454;28;20186;-81
2021/04/03 08:39:09;;;;;;;1.10;0.30;;;8.70;95.00;;;;;;4959213;28;20281;-81
2021/04/03 08:41:36;;;;;;;3.67;0.60;;;8.80;97.60;;;;;;4959307;28;20183;-81
2021/04/03 08:44:33;;;;;;;4.53;0.60;;;9.00;95.60;;;;;;4976408;28;20186;-80
2021/04/03 08:47:00;;;;;;;1.23;0.53;;;8.80;93.30;;;;;;4951006;28;20541;-81
2021/04/03 08:49:29;;;;;;;7.97;1.00;;;8.60;92.00;;;;;;4954829;28;20178;-80
2021/04/03 08:51:55;;;;;;;3.60;0.70;;;8.80;98.00;;;;;;4958968;28;20229;-78
2021/04/03 08:54:21;;;;;;;1.43;0.50;;;8.80;93.50;;;;;;4974031;28;20178;-80
2021/04/03 08:56:46;;;;;;;5.78;0.80;;;8.90;94.70;;;;;;4971047;28;20986;-79
2021/04/03 08:59:20;;;;;;;5.67;0.90;;;8.90;96.00;;;;;;4953503;28;20310;-80
2021/04/03 09:01:48;;;;;;;3.80;0.63;;;9.20;98.90;;;;;;4956047;28;20278;-80
2021/04/03 09:04:14;;;;;;;1.20;0.40;;;9.10;91.90;;;;;;4958096;28;20185;-80
2021/04/03 09:06:50;;;;;;;3.73;0.83;;;9.10;88.10;;;;;;4954177;28;20276;-80
2021/04/03 09:09:22;;;;;;;304.43;235.87;;;9.30;91.60;;;;;;4956190;28;20206;-80
2021/04/03 09:12:03;;;;;;;21.00;13.70;;;9.40;93.70;;;;;;4956625;28;20833;-78
2021/04/03 09:14:35;;;;;;;11.23;7.00;;;9.70;91.50;;;;;;4957909;28;20229;-79
2021/04/03 09:17:02;;;;;;;8.53;3.60;;;9.50;92.30;;;;;;4953235;28;20591;-80
2021/04/03 09:19:30;;;;;;;7.93;3.23;;;9.80;92.40;;;;;;4955925;28;20182;-79
2021/04/03 09:21:57;;;;;;;3.53;0.60;;;10.00;92.90;;;;;;4959066;28;20190;-78
2021/04/03 09:24:42;;;;;;;2.30;0.77;;;9.80;85.40;;;;;;4942238;28;20190;-81
2021/04/03 09:27:19;;;;;;;6.87;0.70;;;9.60;81.20;;;;;;4958714;28;20212;-81
2021/04/03 09:29:48;;;;;;;3.37;0.70;;;9.70;83.60;;;;;;4960300;28;20195;-82
2021/04/03 09:32:16;;;;;;;2.00;0.37;;;10.00;84.10;;;;;;4962157;28;20209;-81
2021/04/03 09:34:42;;;;;;;2.07;0.53;;;10.20;90.00;;;;;;4971758;28;20634;-81
2021/04/03 09:37:18;;;;;;;2.87;0.40;;;10.00;82.80;;;;;;4950023;29;20179;-81
2021/04/03 09:39:51;;;;;;;2.47;0.50;;;10.20;80.90;;;;;;4953576;28;20197;-81
2021/04/03 09:42:18;;;;;;;2.70;0.50;;;10.30;86.00;;;;;;4975306;28;20194;-83
2021/04/03 09:44:45;;;;;;;2.10;0.40;;;10.20;85.20;;;;;;4953631;29;20195;-81
2021/04/03 09:47:11;;;;;;;4.27;0.60;;;9.90;73.60;;;;;;4952697;28;20272;-80
2021/04/03 09:49:38;;;;;;;1.50;0.40;;;10.20;84.70;;;;;;4953525;29;20188;-77
2021/04/03 09:52:05;;;;;;;2.30;0.70;;;10.50;81.20;;;;;;4952567;28;20235;-76
2021/04/03 09:54:31;;;;;;;3.23;0.50;;;10.80;84.10;;;;;;4950856;28;20182;-75
2021/04/03 09:56:56;;;;;;;1.90;0.40;;;10.80;74.60;;;;;;4952780;28;20229;-76
2021/04/03 09:59:23;;;;;;;1.40;0.50;;;10.30;76.30;;;;;;4948575;28;20295;-77
2021/04/03 10:01:48;;;;;;;1.30;0.37;;;10.70;77.40;;;;;;4955525;28;20639;-76
2021/04/03 10:04:14;;;;;;;2.00;1.33;;;10.90;82.00;;;;;;4952333;28;20238;-75
2021/04/03 10:06:39;;;;;;;2.83;0.40;;;11.00;79.20;;;;;;4956180;28;20210;-77
2021/04/03 10:09:05;;;;;;;1.37;0.20;;;10.90;79.90;;;;;;4957411;28;20240;-77
2021/04/03 10:11:31;;;;;;;4.30;0.50;;;11.00;74.60;;;;;;4953963;28;20666;-76
2021/04/03 10:13:57;;;;;;;3.10;0.40;;;10.70;77.80;;;;;;4957078;28;20259;-78
2021/04/03 10:16:23;;;;;;;4.93;0.60;;;10.90;78.90;;;;;;4955593;28;21089;-80
2021/04/03 10:18:48;;;;;;;1.57;0.50;;;11.00;80.40;;;;;;4951846;28;20200;-82
2021/04/03 10:21:14;;;;;;;4.40;0.50;;;11.10;79.50;;;;;;4948104;29;20185;-81
2021/04/03 10:23:44;;;;;;;2.50;0.60;;;10.90;81.30;;;;;;4938245;29;20280;-81
2021/04/03 10:26:10;;;;;;;2.63;0.80;;;10.50;76.00;;;;;;4941461;29;20282;-81
2021/04/03 10:28:35;;;;;;;2.67;0.57;;;10.80;81.80;;;;;;4938306;29;20228;-81
2021/04/03 10:31:01;;;;;;;3.47;0.50;;;10.70;78.40;;;;;;4965792;28;20198;-80
2021/04/03 10:33:26;;;;;;;1.43;0.30;;;11.00;87.50;;;;;;4939155;28;20215;-81
2021/04/03 10:35:52;;;;;;;3.37;0.50;;;11.10;80.00;;;;;;4956726;28;20182;-78
2021/04/03 10:38:17;;;;;;;1.90;0.60;;;11.20;73.40;;;;;;4948864;28;20263;-79
2021/04/03 10:40:43;;;;;;;3.07;0.40;;;11.00;82.60;;;;;;4941463;28;20591;-81
2021/04/03 10:43:09;;;;;;;2.67;0.60;;;10.80;73.40;;;;;;4954986;28;20224;-80
2021/04/03 10:45:34;;;;;;;1.73;0.53;;;11.10;76.00;;;;;;4956244;28;20185;-80
2021/04/03 10:48:00;;;;;;;1.80;0.43;;;11.40;75.50;;;;;;4949116;28;20209;-79
2021/04/03 10:50:25;;;;;;;1.80;0.40;;;11.50;73.90;;;;;;4972416;28;20182;-79
2021/04/03 10:52:51;;;;;;;1.60;0.50;;;11.60;73.60;;;;;;4969884;28;20207;-80
2021/04/03 10:55:17;;;;;;;2.60;0.43;;;11.50;77.40;;;;;;4955358;28;20355;-79
2021/04/03 10:57:43;;;;;;;2.33;0.50;;;11.60;76.20;;;;;;4955785;28;20303;-79
2021/04/03 11:00:09;;;;;;;1.07;0.50;;;11.30;74.70;;;;;;4955689;28;20269;-80
2021/04/03 11:02:34;;;;;;;2.67;0.50;;;11.60;76.10;;;;;;4955554;28;20189;-79
2021/04/03 11:05:00;;;;;;;3.20;0.63;;;11.90;77.20;;;;;;4972427;28;20199;-80
2021/04/03 11:07:25;;;;;;;1.43;0.50;;;12.10;74.10;;;;;;4945007;29;20213;-79
2021/04/03 11:09:52;;;;;;;0.87;0.40;;;12.00;73.30;;;;;;4955810;28;20233;-79
2021/04/03 11:12:18;;;;;;;2.97;0.60;;;12.00;72.80;;;;;;4948569;28;20580;-80
2021/04/03 11:14:44;;;;;;;2.50;0.40;;;12.00;76.80;;;;;;4955401;28;20191;-80
2021/04/03 11:17:10;;;;;;;2.40;0.67;;;12.20;76.30;;;;;;4954008;28;20191;-80
2021/04/03 11:19:36;;;;;;;1.20;0.30;;;12.20;73.30;;;;;;4945756;28;20205;-80
2021/04/03 11:22:02;;;;;;;2.27;0.60;;;12.00;74.60;;;;;;4955388;28;20287;-79
2021/04/03 11:24:28;;;;;;;1.47;0.37;;;11.90;79.50;;;;;;4951958;28;20193;-79
2021/04/03 11:26:53;;;;;;;2.80;0.50;;;12.10;77.50;;;;;;4951472;28;20272;-80
2021/04/03 11:29:19;;;;;;;2.20;0.40;;;12.00;71.60;;;;;;4955292;28;20207;-79
2021/04/03 11:31:44;;;;;;;2.70;0.50;;;11.90;77.70;;;;;;4947237;28;20267;-79
2021/04/03 11:34:10;;;;;;;1.80;0.80;;;11.80;73.50;;;;;;4955197;28;20273;-79
2021/04/03 11:36:36;;;;;;;2.77;0.70;;;11.80;79.90;;;;;;4954924;28;20182;-80
2021/04/03 11:39:02;;;;;;;5.03;0.80;;;11.90;75.90;;;;;;4955252;28;20193;-80
2021/04/03 11:41:27;;;;;;;1.20;0.50;;;11.30;76.80;;;;;;4943238;29;20263;-80
2021/04/03 11:43:53;;;;;;;0.80;0.33;;;11.40;76.60;;;;;;4936886;29;20269;-80
2021/04/03 11:46:19;;;;;;;1.90;0.50;;;11.70;77.70;;;;;;4944828;28;20181;-80
2021/04/03 11:48:44;;;;;;;1.37;0.40;;;11.60;81.10;;;;;;4938072;29;20214;-80
2021/04/03 11:51:11;;;;;;;1.27;0.40;;;11.60;76.60;;;;;;4958586;28;20179;-80
2021/04/03 11:53:37;;;;;;;3.20;0.53;;;11.90;77.80;;;;;;4976727;28;20248;-78
2021/04/03 11:56:02;;;;;;;2.27;0.60;;;11.90;69.50;;;;;;4948789;28;20590;-79
2021/04/03 11:58:28;;;;;;;1.77;0.60;;;11.90;72.00;;;;;;4957092;28;20214;-78
2021/04/03 12:00:54;;;;;;;1.23;0.30;;;11.70;72.10;;;;;;4959225;28;20616;-80
2021/04/03 12:03:20;;;;;;;2.10;0.40;;;11.50;74.50;;;;;;4944132;28;20279;-79
2021/04/03 12:05:45;;;;;;;3.27;0.60;;;11.20;65.60;;;;;;4976441;28;20551;-79
2021/04/03 12:08:11;;;;;;;2.13;0.40;;;11.00;64.60;;;;;;4958457;28;20289;-79
2021/04/03 12:10:37;;;;;;;1.83;0.40;;;11.00;66.40;;;;;;4958684;28;20182;-80
2021/04/03 12:13:03;;;;;;;2.93;0.43;;;11.30;68.20;;;;;;4957955;28;20215;-80
2021/04/03 12:15:28;;;;;;;1.80;0.30;;;11.50;69.70;;;;;;4959282;28;20178;-78
2021/04/03 12:17:54;;;;;;;3.87;0.40;;;11.70;69.00;;;;;;4958890;28;20291;-79
2021/04/03 12:20:20;;;;;;;1.90;0.40;;;11.50;63.60;;;;;;4959029;28;20191;-80
2021/04/03 12:22:46;;;;;;;1.63;0.30;;;11.70;71.50;;;;;;4974663;28;20240;-80
2021/04/03 12:25:12;;;;;;;2.23;0.40;;;11.70;70.10;;;;;;4972378;28;20186;-79
2021/04/03 12:27:38;;;;;;;5.13;0.50;;;11.10;64.40;;;;;;4958255;28;20752;-80
2021/04/03 12:30:04;;;;;;;1.40;0.50;;;11.30;67.20;;;;;;4958932;28;20184;-79
2021/04/03 12:32:30;;;;;;;1.67;0.50;;;11.20;62.80;;;;;;4957773;28;20235;-80
2021/04/03 12:34:57;;;;;;;1.43;0.47;;;11.40;71.60;;;;;;4959111;28;20197;-80
2021/04/03 12:37:22;;;;;;;1.87;0.50;;;11.70;68.10;;;;;;4955159;29;20257;-80
2021/04/03 12:39:48;;;;;;;2.40;0.60;;;12.00;69.70;;;;;;4948833;28;20659;-80
2021/04/03 12:42:13;;;;;;;2.07;0.73;;;12.10;66.10;;;;;;4958897;28;20208;-80
2021/04/03 12:44:39;;;;;;;2.33;0.43;;;12.10;67.70;;;;;;4959256;28;20732;-81
2021/04/03 12:47:05;;;;;;;2.67;0.50;;;12.00;67.30;;;;;;4946570;29;20187;-80
2021/04/03 12:49:31;;;;;;;2.20;0.40;;;11.90;68.00;;;;;;4958524;28;20196;-80
2021/04/03 12:51:57;;;;;;;2.40;0.70;;;11.90;67.90;;;;;;4975011;28;20252;-80
2021/04/03 12:54:24;;;;;;;1.43;0.50;;;11.80;66.10;;;;;;4958571;28;20648;-79
2021/04/03 12:56:50;;;;;;;2.17;0.50;;;12.00;69.00;;;;;;4957686;28;20324;-80
2021/04/03 12:59:16;;;;;;;2.53;0.60;;;12.30;68.40;;;;;;4956942;28;20219;-79